HECA/CAI METAR and TAF weather

Enter ICAO airport designator
Station Type Date Time Source
HECA METAR 2019/08/19 07:30 UTC NOAA

HECA 190730Z 30008KT CAVOK 28/17 Q1010 NOSIG


Station Type Date Time Source
HECA Decoded METAR 2019/08/19 07:30 UTC NOAA

Station name not available
Aug 19, 2019 - 03:30 AM EDT / 2019.08.19 0730 UTC
Wind: from the WNW (300 degrees) at 9 MPH (8 KT):0
Visibility: greater than 7 mile(s):0
Temperature: 82 F (28 C)
Dew Point: 62 F (17 C)
Relative Humidity: 51%
Pressure (altimeter): 29.83 in. Hg (1010 hPa)
ob: HECA 190730Z 30008KT CAVOK 28/17 Q1010 NOSIG
cycle: 7

Station Type Date Time Source
HECA TAF 2019/08/19 06:50 UTC NOAA

TAF HECA 190500Z 1906/2012 30010KT 9999 SCT025
BECMG 1910/1912 CAVOK

Example: see airport list